Rudy, Arkansas
Current Conditions -  °F | °C
As of 1:53 AM on Monday 22 Dec 2014 (Local Time) from KFSM Reporting Station
Haze Haze  
Wind Chill: 41°   Ceiling: 500
Heat Index: 45°   Visibility: 6mi
Dew Point: 43°   Wind: 8mph
Humidity: 93%   Direction: 70°ENE
Pressure: 29.74"   Gusts: NA
Location:  35.53°N, 94.27°W
Report Text: KFSM 220753Z AUTO 07007KT 6SM BR BKN005 OVC033 07/06 A2974 RMK AO2 SLP069 T00720061
Loading
Personal Weather Stations






























Interactive Weather Map New forecast layout! Learn more

10-Day Weather Forecast

Advertisements
Track Severe Weather on mobile